Terminal Aerodrome Forecast
Issued by NWS Glasgow, MT

Current Version | Previous Version | Text Only | Print | Product List | Glossary On
Versions: 1 2 3 4 5 6 7 8 9 10 11 12 13 14
000
FTUS45 KGGW 281100 RRA
TAFGGW
TAF
KGGW 281142Z 2812/2912 11008KT P6SM SKC
     FM281900 27013KT P6SM SKC
     FM290200 36012KT P6SM SCT100=

USA.gov is the U.S. government's official web portal to all federal, state and local government web resources and services.